createdAt,value
2022-11-03T00:01:49.166Z,11.55
2022-11-03T00:04:18.771Z,11.55
2022-11-03T00:06:47.864Z,11.56
2022-11-03T00:09:16.517Z,11.54
2022-11-03T00:11:44.744Z,11.55
2022-11-03T00:14:12.745Z,11.56
2022-11-03T00:16:39.679Z,11.54
2022-11-03T00:19:07.404Z,11.47
2022-11-03T00:21:34.361Z,11.46
2022-11-03T00:24:02.869Z,11.50
2022-11-03T00:26:34.203Z,11.52
2022-11-03T00:29:06.022Z,11.52
2022-11-03T00:31:35.164Z,11.54
2022-11-03T00:34:03.067Z,11.54
2022-11-03T00:36:32.603Z,11.55
2022-11-03T00:38:59.313Z,11.55
2022-11-03T00:41:27.615Z,11.58
2022-11-03T00:43:54.922Z,11.55
2022-11-03T00:46:23.700Z,11.56
2022-11-03T00:48:50.919Z,11.52
2022-11-03T00:51:26.083Z,11.50
2022-11-03T00:53:55.096Z,11.52
2022-11-03T00:56:28.862Z,11.53
2022-11-03T00:58:57.610Z,11.51
2022-11-03T01:01:27.074Z,11.48
2022-11-03T01:04:15.108Z,11.44
2022-11-03T01:06:51.364Z,11.41
2022-11-03T01:09:17.957Z,11.42
2022-11-03T01:12:03.180Z,11.45
2022-11-03T01:14:32.203Z,11.46
2022-11-03T01:16:59.065Z,11.42
2022-11-03T01:19:25.920Z,11.41
2022-11-03T01:21:53.390Z,11.44
2022-11-03T01:24:21.274Z,11.44
2022-11-03T01:26:48.473Z,11.40
2022-11-03T01:29:15.276Z,11.39
2022-11-03T01:31:42.226Z,11.42
2022-11-03T01:34:14.591Z,11.45
2022-11-03T01:36:41.187Z,11.46
2022-11-03T01:39:14.136Z,11.45
2022-11-03T01:41:42.305Z,11.44
2022-11-03T01:44:08.903Z,11.49
2022-11-03T01:46:46.535Z,11.50
2022-11-03T01:49:40.956Z,11.49
2022-11-03T01:52:31.753Z,11.53
2022-11-03T01:55:15.344Z,11.54
2022-11-03T01:57:53.721Z,11.50
2022-11-03T02:00:21.426Z,11.47
2022-11-03T02:02:48.440Z,11.52
2022-11-03T02:05:16.865Z,11.49
2022-11-03T02:07:54.029Z,11.50
2022-11-03T02:10:20.854Z,11.48
2022-11-03T02:12:48.563Z,11.46
2022-11-03T02:15:17.493Z,11.45
2022-11-03T02:17:46.521Z,11.51
2022-11-03T02:20:23.703Z,11.46
2022-11-03T02:22:53.277Z,11.45
2022-11-03T02:25:41.999Z,11.45
2022-11-03T02:28:09.293Z,11.48
2022-11-03T02:30:45.078Z,11.52
2022-11-03T02:33:23.459Z,11.51
2022-11-03T02:35:59.747Z,11.48
2022-11-03T02:38:29.452Z,11.48
2022-11-03T02:40:59.267Z,11.46
2022-11-03T02:43:26.831Z,11.50
2022-11-03T02:45:55.547Z,11.44
2022-11-03T02:48:22.202Z,11.42
2022-11-03T02:50:51.764Z,11.45
2022-11-03T02:53:19.781Z,11.49
2022-11-03T02:55:58.472Z,11.49
2022-11-03T02:58:40.854Z,11.51
2022-11-03T03:01:20.361Z,11.56
2022-11-03T03:03:52.000Z,11.54
2022-11-03T03:06:28.706Z,11.56
2022-11-03T03:09:00.859Z,11.59
2022-11-03T03:11:39.782Z,11.66
2022-11-03T03:14:17.203Z,11.64
2022-11-03T03:17:24.415Z,11.60
2022-11-03T03:20:13.634Z,11.67
2022-11-03T03:23:11.451Z,11.56
2022-11-03T03:25:46.079Z,11.54
2022-11-03T03:28:37.563Z,11.51
2022-11-03T03:31:09.700Z,11.54
2022-11-03T03:33:40.838Z,11.48
2022-11-03T03:36:15.294Z,11.51
2022-11-03T03:38:46.600Z,11.59
2022-11-03T03:41:22.278Z,11.52
2022-11-03T03:43:55.888Z,11.46
2022-11-03T03:46:26.840Z,11.49
2022-11-03T03:48:53.664Z,11.38
2022-11-03T03:51:24.359Z,11.45
2022-11-03T03:53:55.526Z,11.39
2022-11-03T03:56:33.720Z,11.34
2022-11-03T03:59:00.360Z,11.28
2022-11-03T04:01:27.292Z,11.28
2022-11-03T04:03:54.154Z,11.11
2022-11-03T04:06:20.961Z,11.11
2022-11-03T04:08:47.680Z,11.10
2022-11-03T04:11:32.842Z,11.06
2022-11-03T04:14:17.942Z,10.99
2022-11-03T04:17:03.383Z,11.02
2022-11-03T04:19:48.964Z,11.00
2022-11-03T04:22:18.358Z,11.01
2022-11-03T04:24:47.128Z,10.95
2022-11-03T04:27:25.341Z,10.92
2022-11-03T04:29:52.809Z,10.96
2022-11-03T04:32:19.418Z,10.94
2022-11-03T04:34:48.477Z,10.92
2022-11-03T04:37:16.222Z,10.98
2022-11-03T04:42:15.583Z,10.86
2022-11-03T04:44:42.238Z,10.77
2022-11-03T04:47:13.929Z,10.78
2022-11-03T04:49:40.857Z,10.76
2022-11-03T04:52:25.628Z,10.76
2022-11-03T04:54:53.668Z,10.74
2022-11-03T04:57:20.376Z,10.68
2022-11-03T04:59:50.027Z,10.66
2022-11-03T05:02:20.039Z,10.65
2022-11-03T05:04:46.687Z,10.75
2022-11-03T05:07:34.728Z,10.76
2022-11-03T05:10:01.936Z,10.76
2022-11-03T05:12:30.419Z,10.70
2022-11-03T05:14:58.788Z,10.65
2022-11-03T05:17:28.019Z,10.64
2022-11-03T05:20:04.084Z,10.63
2022-11-03T05:22:39.597Z,10.66
2022-11-03T05:25:38.304Z,10.65
2022-11-03T05:28:15.753Z,10.62
2022-11-03T05:30:42.378Z,10.61
2022-11-03T05:33:22.096Z,10.58
2022-11-03T05:35:49.146Z,10.57
2022-11-03T05:38:19.264Z,10.55
2022-11-03T05:40:46.432Z,10.54
2022-11-03T05:43:14.990Z,10.55
2022-11-03T05:45:42.110Z,10.55
2022-11-03T05:48:22.775Z,10.56
2022-11-03T05:50:49.718Z,10.55
2022-11-03T05:53:38.644Z,10.51
2022-11-03T05:56:07.208Z,10.52
2022-11-03T05:58:42.808Z,10.52
2022-11-03T06:01:37.498Z,10.52
2022-11-03T06:04:37.560Z,10.51
2022-11-03T06:07:14.139Z,10.53
2022-11-03T06:09:40.852Z,10.52
2022-11-03T06:12:15.193Z,10.51
2022-11-03T06:14:42.013Z,10.46
2022-11-03T06:17:26.890Z,10.43
2022-11-03T06:19:58.828Z,10.40
2022-11-03T06:22:32.734Z,10.37
2022-11-03T06:25:19.680Z,10.39
2022-11-03T06:27:46.497Z,10.40
2022-11-03T06:30:34.609Z,10.39
2022-11-03T06:33:14.843Z,10.40
2022-11-03T06:35:42.060Z,10.44
2022-11-03T06:38:27.494Z,10.45
2022-11-03T06:40:54.206Z,10.45
2022-11-03T06:43:36.711Z,10.48
2022-11-03T06:46:15.005Z,10.50
2022-11-03T06:48:41.642Z,10.49
2022-11-03T06:51:22.371Z,10.49
2022-11-03T06:53:51.683Z,10.46
2022-11-03T06:56:26.774Z,10.50
2022-11-03T06:58:55.360Z,10.53
2022-11-03T07:01:24.925Z,10.56
2022-11-03T07:03:57.355Z,10.58
2022-11-03T07:06:28.797Z,10.58
2022-11-03T07:09:05.009Z,10.57
2022-11-03T07:11:53.371Z,10.54
2022-11-03T07:14:22.570Z,10.57
2022-11-03T07:16:53.208Z,10.63
2022-11-03T07:19:26.651Z,10.65
2022-11-03T07:21:56.477Z,10.68
2022-11-03T07:24:27.694Z,10.69
2022-11-03T07:26:59.392Z,10.71
2022-11-03T07:29:28.622Z,10.71
2022-11-03T07:31:58.638Z,10.71
2022-11-03T07:34:29.836Z,10.67
2022-11-03T07:36:58.124Z,10.64
2022-11-03T07:39:33.676Z,10.70
2022-11-03T07:42:02.396Z,10.77
2022-11-03T07:44:29.443Z,10.82
2022-11-03T07:46:57.332Z,10.85
2022-11-03T07:49:28.352Z,10.90
2022-11-03T07:51:59.878Z,10.93
2022-11-03T07:54:32.495Z,10.85
2022-11-03T07:57:00.898Z,10.82
2022-11-03T07:59:33.238Z,10.79
2022-11-03T08:02:00.641Z,10.74
2022-11-03T08:04:31.275Z,10.68
2022-11-03T08:06:57.919Z,10.64
2022-11-03T08:09:24.568Z,10.68
2022-11-03T08:11:51.658Z,10.78
2022-11-03T08:14:18.526Z,10.93
2022-11-03T08:16:45.419Z,11.02
2022-11-03T08:19:12.484Z,11.02
2022-11-03T08:21:39.483Z,11.04
2022-11-03T08:24:06.502Z,11.04
2022-11-03T08:26:33.155Z,10.99
2022-11-03T08:28:59.800Z,10.97
2022-11-03T08:31:26.457Z,10.97
2022-11-03T08:33:53.101Z,10.97
2022-11-03T08:36:20.871Z,11.01
2022-11-03T08:38:47.675Z,11.04
2022-11-03T08:41:14.383Z,11.10
2022-11-03T08:43:41.042Z,11.19
2022-11-03T08:46:16.805Z,11.26
2022-11-03T08:48:44.444Z,11.33
2022-11-03T08:51:13.995Z,11.38
2022-11-03T08:53:42.937Z,11.45
2022-11-03T08:56:12.826Z,11.43
2022-11-03T08:58:42.424Z,11.46
2022-11-03T09:01:09.079Z,11.44
2022-11-03T09:03:35.853Z,11.52
2022-11-03T09:06:02.573Z,11.54
2022-11-03T09:11:15.854Z,11.75
2022-11-03T09:13:42.469Z,11.89
2022-11-03T09:16:09.159Z,12.00
2022-11-03T09:18:35.799Z,12.09
2022-11-03T09:21:02.516Z,12.06
2022-11-03T09:23:29.175Z,12.04
2022-11-03T09:25:55.818Z,12.02
2022-11-03T09:28:22.455Z,12.07
2022-11-03T09:30:49.130Z,12.11
2022-11-03T09:33:15.765Z,12.12
2022-11-03T09:35:42.378Z,12.19
2022-11-03T09:38:09.153Z,12.18
2022-11-03T09:40:36.298Z,12.15
2022-11-03T09:43:03.565Z,12.17
2022-11-03T09:45:30.234Z,12.20
2022-11-03T09:47:57.048Z,12.26
2022-11-03T09:50:24.180Z,12.27
2022-11-03T09:52:55.449Z,12.19
2022-11-03T09:55:25.990Z,12.01
2022-11-03T09:57:55.647Z,12.07
2022-11-03T10:00:24.134Z,12.07
2022-11-03T10:02:51.083Z,12.09
2022-11-03T10:05:24.411Z,12.29
2022-11-03T10:07:56.570Z,12.25
2022-11-03T10:10:23.707Z,12.31
2022-11-03T10:12:53.217Z,12.09
2022-11-03T10:15:23.095Z,12.16
2022-11-03T10:17:50.901Z,12.26
2022-11-03T10:20:20.726Z,12.21
2022-11-03T10:22:50.818Z,12.12
2022-11-03T10:25:37.059Z,12.11
2022-11-03T10:28:15.431Z,12.17
2022-11-03T10:33:42.057Z,12.43
2022-11-03T10:36:17.800Z,12.47
2022-11-03T10:38:45.116Z,12.46
2022-11-03T10:41:19.248Z,12.44
2022-11-03T10:44:00.925Z,12.36
2022-11-03T10:49:17.051Z,12.31
2022-11-03T10:51:47.611Z,12.27
2022-11-03T10:54:16.758Z,12.28
2022-11-03T10:56:44.513Z,12.26
2022-11-03T10:59:32.957Z,12.25
2022-11-03T11:02:01.057Z,12.21
2022-11-03T11:04:28.073Z,12.28
2022-11-03T11:06:55.162Z,12.27
2022-11-03T11:09:26.912Z,12.23
2022-11-03T11:12:16.234Z,12.24
2022-11-03T11:14:53.980Z,12.34
2022-11-03T11:17:39.148Z,12.36
2022-11-03T11:20:21.607Z,12.26
2022-11-03T11:22:49.726Z,12.25
2022-11-03T11:25:18.740Z,12.28
2022-11-03T11:27:45.324Z,12.33
2022-11-03T11:30:21.102Z,12.32
2022-11-03T11:32:59.605Z,12.31
2022-11-03T11:35:26.433Z,12.32
2022-11-03T11:37:54.495Z,12.39
2022-11-03T11:40:24.198Z,12.41
2022-11-03T11:43:02.846Z,12.44
2022-11-03T11:46:07.179Z,12.41
2022-11-03T11:48:34.521Z,12.28
2022-11-03T11:51:02.852Z,12.27
2022-11-03T11:53:39.829Z,12.25
2022-11-03T11:56:10.943Z,12.20
2022-11-03T11:58:51.547Z,12.26
2022-11-03T12:01:33.616Z,12.33
2022-11-03T12:04:15.372Z,12.42
2022-11-03T12:06:42.603Z,12.48
2022-11-03T12:09:21.314Z,12.46
2022-11-03T12:11:56.388Z,12.56
2022-11-03T12:14:43.661Z,12.53
2022-11-03T12:17:16.415Z,12.37
2022-11-03T12:19:44.993Z,12.28
2022-11-03T12:22:32.921Z,12.24
2022-11-03T12:25:01.326Z,12.15
2022-11-03T12:27:27.991Z,12.04
2022-11-03T12:29:58.484Z,12.01
2022-11-03T12:32:33.821Z,12.00
2022-11-03T12:35:07.669Z,12.03
2022-11-03T12:37:34.507Z,12.11
2022-11-03T12:40:01.115Z,12.10
2022-11-03T12:42:27.795Z,12.03
2022-11-03T12:44:54.457Z,11.96
2022-11-03T12:47:21.182Z,11.92
2022-11-03T12:49:48.040Z,11.90
2022-11-03T12:52:15.120Z,11.89
2022-11-03T12:54:42.537Z,11.89
2022-11-03T12:57:09.435Z,11.88
2022-11-03T12:59:36.103Z,11.88
2022-11-03T13:02:02.987Z,11.92
2022-11-03T13:04:29.689Z,11.96
2022-11-03T13:06:56.669Z,12.00
2022-11-03T13:09:23.352Z,12.02
2022-11-03T13:12:08.816Z,12.04
2022-11-03T13:14:35.465Z,11.99
2022-11-03T13:17:03.943Z,12.01
2022-11-03T13:19:30.846Z,11.99
2022-11-03T13:21:57.596Z,11.99
2022-11-03T13:24:24.221Z,11.96
2022-11-03T13:26:50.873Z,11.99
2022-11-03T13:29:17.514Z,12.01
2022-11-03T13:31:44.174Z,11.99
2022-11-03T13:34:10.853Z,11.96
2022-11-03T13:36:37.548Z,11.97
2022-11-03T13:39:04.723Z,11.99
2022-11-03T13:41:31.362Z,11.97
2022-11-03T13:43:58.045Z,11.90
2022-11-03T13:46:24.722Z,11.92
2022-11-03T13:51:38.032Z,12.05
2022-11-03T13:59:38.254Z,12.06
2022-11-03T14:04:52.847Z,11.96
2022-11-03T14:07:19.576Z,11.96
2022-11-03T14:09:46.327Z,11.96
2022-11-03T14:12:31.109Z,12.01
2022-11-03T14:15:10.925Z,12.09
2022-11-03T14:17:38.754Z,12.17
2022-11-03T14:20:06.375Z,12.15
2022-11-03T14:22:33.142Z,12.17
2022-11-03T14:25:01.115Z,12.19
2022-11-03T14:27:27.922Z,12.16
2022-11-03T14:29:54.806Z,12.14
2022-11-03T14:32:21.679Z,12.08
2022-11-03T14:34:48.710Z,12.06
2022-11-03T14:37:16.116Z,12.11
2022-11-03T14:39:42.899Z,12.09
2022-11-03T14:42:15.769Z,12.13
2022-11-03T14:44:44.169Z,12.07
2022-11-03T14:47:19.279Z,12.03
2022-11-03T14:49:46.609Z,12.02
2022-11-03T14:52:14.668Z,12.01
2022-11-03T14:54:41.848Z,12.04
2022-11-03T14:57:09.754Z,12.03
2022-11-03T14:59:36.557Z,12.02
2022-11-03T15:02:03.876Z,12.03
2022-11-03T15:04:30.740Z,12.00
2022-11-03T15:06:57.457Z,11.97
2022-11-03T15:09:24.071Z,11.93
2022-11-03T15:11:50.776Z,11.90
2022-11-03T15:14:17.458Z,11.87
2022-11-03T15:16:46.239Z,11.88
2022-11-03T15:19:13.064Z,11.86
2022-11-03T15:21:39.759Z,11.86
2022-11-03T15:26:53.417Z,11.80
2022-11-03T15:29:20.307Z,11.77
2022-11-03T15:31:48.400Z,11.76
2022-11-03T15:34:15.594Z,11.78
2022-11-03T15:36:42.377Z,11.78
2022-11-03T15:39:08.967Z,11.78
2022-11-03T15:41:35.629Z,11.74
2022-11-03T15:44:02.256Z,11.73
2022-11-03T15:46:28.874Z,11.72
2022-11-03T15:48:57.794Z,11.70
2022-11-03T15:51:25.066Z,11.66
2022-11-03T15:53:57.877Z,11.66
2022-11-03T15:56:25.378Z,11.66
2022-11-03T15:58:51.984Z,11.63
2022-11-03T16:01:18.725Z,11.64
2022-11-03T16:03:45.549Z,11.65
2022-11-03T16:06:12.230Z,11.61
2022-11-03T16:08:38.838Z,11.63
2022-11-03T16:11:05.626Z,11.61
2022-11-03T16:13:32.483Z,11.60
2022-11-03T16:15:59.208Z,11.59
2022-11-03T16:18:25.934Z,11.55
2022-11-03T16:20:52.572Z,11.54
2022-11-03T16:23:19.204Z,11.54
2022-11-03T16:25:45.897Z,11.54
2022-11-03T16:28:12.595Z,11.51
2022-11-03T16:30:39.282Z,11.51
2022-11-03T16:33:06.140Z,11.50
2022-11-03T16:35:32.902Z,11.47
2022-11-03T16:37:59.623Z,11.44
2022-11-03T16:40:26.316Z,11.41
2022-11-03T16:42:53.044Z,11.39
2022-11-03T16:45:22.256Z,11.37
2022-11-03T16:47:50.487Z,11.34
2022-11-03T16:50:18.193Z,11.32
2022-11-03T16:52:45.922Z,11.32
2022-11-03T16:55:12.993Z,11.30
2022-11-03T16:57:39.866Z,11.29
2022-11-03T17:00:09.712Z,11.27
2022-11-03T17:02:36.321Z,11.26
2022-11-03T17:05:03.564Z,11.26
2022-11-03T17:07:30.215Z,11.25
2022-11-03T17:09:57.107Z,11.26
2022-11-03T17:12:23.824Z,11.24
2022-11-03T17:14:53.989Z,11.25
2022-11-03T17:17:23.303Z,11.28
2022-11-03T17:19:50.122Z,11.28
2022-11-03T17:22:17.064Z,11.26
2022-11-03T17:24:43.824Z,11.18
2022-11-03T17:27:16.683Z,11.18
2022-11-03T17:29:52.497Z,11.19
2022-11-03T17:32:24.242Z,11.20
2022-11-03T17:34:52.989Z,11.21
2022-11-03T17:37:20.452Z,11.22
2022-11-03T17:39:47.243Z,11.21
2022-11-03T17:42:17.311Z,11.21
2022-11-03T17:44:49.786Z,11.23
2022-11-03T17:47:17.725Z,11.23
2022-11-03T17:49:45.404Z,11.19
2022-11-03T17:52:28.059Z,11.21
2022-11-03T17:54:57.089Z,11.20
2022-11-03T17:57:23.999Z,11.20
2022-11-03T17:59:53.329Z,11.19
2022-11-03T18:02:22.689Z,11.13
2022-11-03T18:04:50.575Z,11.10
2022-11-03T18:07:28.162Z,11.12
2022-11-03T18:09:56.201Z,11.15
2022-11-03T18:12:45.069Z,11.17
2022-11-03T18:15:17.620Z,11.15
2022-11-03T18:17:44.358Z,11.15
2022-11-03T18:20:20.879Z,11.11
2022-11-03T18:22:47.979Z,11.12
2022-11-03T18:25:15.898Z,11.11
2022-11-03T18:27:42.961Z,11.13
2022-11-03T18:30:11.290Z,11.12
2022-11-03T18:32:40.154Z,11.11
2022-11-03T18:35:14.242Z,11.10
2022-11-03T18:37:44.171Z,11.09
2022-11-03T18:40:13.397Z,11.08
2022-11-03T18:42:40.296Z,11.05
2022-11-03T18:45:15.700Z,11.05
2022-11-03T18:47:43.411Z,11.06
2022-11-03T18:50:14.723Z,11.09
2022-11-03T18:52:44.905Z,11.06
2022-11-03T18:55:12.298Z,11.04
2022-11-03T18:57:39.701Z,11.00
2022-11-03T19:00:28.082Z,10.99
2022-11-03T19:02:54.700Z,10.97
2022-11-03T19:05:21.504Z,10.97
2022-11-03T19:07:50.305Z,10.95
2022-11-03T19:10:21.483Z,10.89
2022-11-03T19:12:48.665Z,10.89
2022-11-03T19:15:24.020Z,10.90
2022-11-03T19:17:54.508Z,10.89
2022-11-03T19:20:21.263Z,10.89
2022-11-03T19:22:47.974Z,10.90
2022-11-03T19:25:15.532Z,10.88
2022-11-03T19:27:46.046Z,10.84
2022-11-03T19:30:16.520Z,10.82
2022-11-03T19:32:48.805Z,10.82
2022-11-03T19:35:21.642Z,10.80
2022-11-03T19:37:51.155Z,10.77
2022-11-03T19:40:20.116Z,10.75
2022-11-03T19:42:48.747Z,10.77
2022-11-03T19:45:19.843Z,10.73
2022-11-03T19:48:25.565Z,10.73
2022-11-03T19:50:43.138Z,10.76
2022-11-03T19:53:15.387Z,10.77
2022-11-03T19:55:42.638Z,10.61
2022-11-03T19:58:15.761Z,10.56
2022-11-03T20:00:43.898Z,10.46
2022-11-03T20:03:11.584Z,10.44
2022-11-03T20:05:39.172Z,10.47
2022-11-03T20:08:08.123Z,10.48
2022-11-03T20:10:36.127Z,10.47
2022-11-03T20:13:04.277Z,10.45
2022-11-03T20:15:30.960Z,10.42
2022-11-03T20:17:57.594Z,10.34
2022-11-03T20:20:27.413Z,10.34
2022-11-03T20:22:57.538Z,10.34
2022-11-03T20:25:29.623Z,10.38
2022-11-03T20:27:57.890Z,10.39
2022-11-03T20:30:27.352Z,10.42
2022-11-03T20:32:54.748Z,10.45
2022-11-03T20:35:28.103Z,10.41
2022-11-03T20:37:59.442Z,10.40
2022-11-03T20:40:30.736Z,10.39
2022-11-03T20:43:01.137Z,10.40
2022-11-03T20:45:31.519Z,10.42
2022-11-03T20:47:58.558Z,10.45
2022-11-03T20:50:25.659Z,10.49
2022-11-03T20:52:52.947Z,10.53
2022-11-03T20:55:22.600Z,10.54
2022-11-03T20:57:51.065Z,10.52
2022-11-03T21:00:28.897Z,10.54
2022-11-03T21:02:56.906Z,10.51
2022-11-03T21:05:24.542Z,10.50
2022-11-03T21:07:51.744Z,10.51
2022-11-03T21:10:20.914Z,10.53
2022-11-03T21:12:48.066Z,10.57
2022-11-03T21:15:52.329Z,10.57
2022-11-03T21:18:45.895Z,10.59
2022-11-03T21:21:16.896Z,10.59
2022-11-03T21:23:47.557Z,10.56
2022-11-03T21:26:14.215Z,10.48
2022-11-03T21:28:40.893Z,10.47
2022-11-03T21:31:12.758Z,10.46
2022-11-03T21:33:39.457Z,10.49
2022-11-03T21:36:06.335Z,10.54
2022-11-03T21:38:33.014Z,10.55
2022-11-03T21:41:19.532Z,10.58
2022-11-03T21:44:04.390Z,10.54
2022-11-03T21:46:30.948Z,10.52
2022-11-03T21:49:23.369Z,10.51
2022-11-03T21:51:49.943Z,10.50
2022-11-03T21:54:16.521Z,10.49
2022-11-03T21:56:43.151Z,10.50
2022-11-03T21:59:09.782Z,10.50
2022-11-03T22:01:36.525Z,10.49
2022-11-03T22:04:03.340Z,10.50
2022-11-03T22:06:30.075Z,10.50
2022-11-03T22:08:56.678Z,10.46
2022-11-03T22:11:23.410Z,10.45
2022-11-03T22:13:57.223Z,10.50
2022-11-03T22:16:42.796Z,10.51
2022-11-03T22:19:33.408Z,10.50
2022-11-03T22:22:20.493Z,10.45
2022-11-03T22:25:05.677Z,10.44
2022-11-03T22:27:33.237Z,10.48
2022-11-03T22:30:19.250Z,10.50
2022-11-03T22:32:51.913Z,10.52
2022-11-03T22:35:37.315Z,10.51
2022-11-03T22:38:09.696Z,10.55
2022-11-03T22:40:55.561Z,10.58
2022-11-03T22:43:42.223Z,10.61
2022-11-03T22:46:10.585Z,10.58
2022-11-03T22:48:37.724Z,10.56
2022-11-03T22:51:10.287Z,10.53
2022-11-03T22:53:56.658Z,10.54
2022-11-03T22:56:25.382Z,10.53
2022-11-03T22:58:52.654Z,10.53
2022-11-03T23:01:21.561Z,10.52
2022-11-03T23:03:49.540Z,10.47
2022-11-03T23:06:18.704Z,10.48
2022-11-03T23:08:47.393Z,10.47
2022-11-03T23:11:17.088Z,10.38
2022-11-03T23:13:45.753Z,10.39
2022-11-03T23:16:15.716Z,10.45
2022-11-03T23:19:01.941Z,10.44
2022-11-03T23:21:29.728Z,10.45
2022-11-03T23:24:15.438Z,10.44
2022-11-03T23:26:42.898Z,10.37
2022-11-03T23:29:10.455Z,10.37
2022-11-03T23:31:37.588Z,10.39
2022-11-03T23:34:05.291Z,10.40
2022-11-03T23:36:32.118Z,10.36
2022-11-03T23:39:00.096Z,10.33
2022-11-03T23:41:27.939Z,10.34
2022-11-03T23:43:55.212Z,10.30
2022-11-03T23:46:43.285Z,10.25
2022-11-03T23:49:10.773Z,10.22
2022-11-03T23:51:37.835Z,10.22
2022-11-03T23:54:06.938Z,10.19
2022-11-03T23:57:02.989Z,10.11
2022-11-03T23:59:31.036Z,10.10
